EGNC - Carlisle
Distance from station: E 5mi, 14km
Updated: 10/22/2017 4:20am
Mostly Cloudy
Mostly Cloudy
 Wind from W
Wind: W 18 mph , 30 km/h
Temperature: 50°F , 10°C
Wind Chill: 44°F , 7°C
Dew Point: 48°F , 9°C
Humidity: 94%
Barometer: 29.68 inHg , 1005 hPa
Clouds: Mostly Cloudy
Visibility: 5 miles , 8 km
Cloud details: Partly Cloudy 1100 ft
Mostly Cloudy 1700 ft
2017/10/22 11:20 EGNC 221120Z 26016KT 8000 SCT011 BKN017 10/09 Q1005